KJCT

Kimble County Airport

Junction, Texas, USA
METAR KJCT 150251Z AUTO 07004KT 10SM CLR 27/20 A2995 RMK AO2 SLP104 T02670200 53004
Observed Flight Rules
Aug-15 @ 02:51 UTC (44 minutes ago) Visual Flight Rules
Wind Visibility Clouds
70° at 4 knots 10 miles
  • Clear skies
Temperatures Readings
Current 27°C / 81°F
Dewpoint 20°C / 68°F
Humidity 66%
Altimeter 29.95" Hg
Pressure 1010.4 hPa
Elevation 522
METAR KJCT 150251Z AUTO 07004KT 10SM CLR 27/20 A2995 RMK AO2 SLP104 T02670200 53004
Observed Flight Rules
Aug-15 @ 02:51 UTC
(44 minutes ago)
VFR
Wind Visibility
70° at 4 knots 10 miles
Clouds
  • Clear skies
Temperature Dewpoint
27°C / 81°F 20°C / 68°F
Humidity Altimeter Pressure
66% 29.95" Hg 1010.4 hPa